createdAt,value
2022-09-21T00:01:14.730Z,8.04
2022-09-21T00:03:43.546Z,8.08
2022-09-21T00:06:17.604Z,8.06
2022-09-21T00:08:46.043Z,8.10
2022-09-21T00:11:14.505Z,8.12
2022-09-21T00:13:41.934Z,8.15
2022-09-21T00:16:09.838Z,8.18
2022-09-21T00:18:36.717Z,8.11
2022-09-21T00:21:08.581Z,7.87
2022-09-21T00:23:36.643Z,7.80
2022-09-21T00:26:26.897Z,7.86
2022-09-21T00:28:59.987Z,7.96
2022-09-21T00:31:28.106Z,8.06
2022-09-21T00:33:54.931Z,8.09
2022-09-21T00:36:24.773Z,8.07
2022-09-21T00:38:53.977Z,7.99
2022-09-21T00:41:21.362Z,8.03
2022-09-21T00:44:08.178Z,8.02
2022-09-21T00:46:39.195Z,7.94
2022-09-21T00:49:06.239Z,7.96
2022-09-21T00:51:32.954Z,7.95
2022-09-21T00:54:04.887Z,7.76
2022-09-21T00:56:31.621Z,7.82
2022-09-21T00:58:58.694Z,7.74
2022-09-21T01:01:25.536Z,7.74
2022-09-21T01:03:55.585Z,7.76
2022-09-21T01:06:22.780Z,7.81
2022-09-21T01:08:57.313Z,7.86
2022-09-21T01:11:39.368Z,7.81
2022-09-21T01:14:17.884Z,7.78
2022-09-21T01:17:06.961Z,7.77
2022-09-21T01:19:46.560Z,7.75
2022-09-21T01:22:43.244Z,7.74
2022-09-21T01:25:33.027Z,7.73
2022-09-21T01:28:24.340Z,7.64
2022-09-21T01:30:53.614Z,7.58
2022-09-21T01:33:26.140Z,7.56
2022-09-21T01:36:08.832Z,7.48
2022-09-21T01:38:43.895Z,7.44
2022-09-21T01:41:15.481Z,7.46
2022-09-21T01:43:55.600Z,7.45
2022-09-21T01:46:29.241Z,7.41
2022-09-21T01:49:00.893Z,7.37
2022-09-21T01:51:28.988Z,7.36
2022-09-21T01:54:01.609Z,7.29
2022-09-21T01:56:38.020Z,7.27
2022-09-21T01:59:10.671Z,7.22
2022-09-21T02:01:47.892Z,7.21
2022-09-21T02:04:14.905Z,7.17
2022-09-21T02:06:45.221Z,6.89
2022-09-21T02:09:12.734Z,6.78
2022-09-21T02:11:43.632Z,6.85
2022-09-21T02:14:13.651Z,6.93
2022-09-21T02:16:49.058Z,6.95
2022-09-21T02:19:48.441Z,6.88
2022-09-21T02:22:33.268Z,6.89
2022-09-21T02:25:06.872Z,6.90
2022-09-21T02:27:42.908Z,6.88
2022-09-21T02:30:16.152Z,6.83
2022-09-21T02:32:52.018Z,6.88
2022-09-21T02:35:28.393Z,6.84
2022-09-21T02:38:02.447Z,6.85
2022-09-21T02:40:30.768Z,6.80
2022-09-21T02:43:06.060Z,6.81
2022-09-21T02:45:41.727Z,6.76
2022-09-21T02:48:40.211Z,6.74
2022-09-21T02:51:14.110Z,6.61
2022-09-21T02:53:42.195Z,6.42
2022-09-21T02:56:11.600Z,6.45
2022-09-21T02:58:42.813Z,6.47
2022-09-21T03:01:12.829Z,6.45
2022-09-21T03:03:39.502Z,6.45
2022-09-21T03:06:06.415Z,6.45
2022-09-21T03:08:33.314Z,6.45
2022-09-21T03:11:00.096Z,6.48
2022-09-21T03:13:26.864Z,6.49
2022-09-21T03:16:03.587Z,6.42
2022-09-21T03:18:31.333Z,6.32
2022-09-21T03:20:58.026Z,6.25
2022-09-21T03:23:25.393Z,6.25
2022-09-21T03:25:52.906Z,6.30
2022-09-21T03:28:20.008Z,6.28
2022-09-21T03:30:48.903Z,6.23
2022-09-21T03:33:16.341Z,6.08
2022-09-21T03:35:43.744Z,6.12
2022-09-21T03:38:10.549Z,6.12
2022-09-21T03:40:37.355Z,6.07
2022-09-21T03:43:04.214Z,6.05
2022-09-21T03:45:30.945Z,6.06
2022-09-21T03:47:59.284Z,6.03
2022-09-21T03:50:28.735Z,5.97
2022-09-21T03:52:56.436Z,5.94
2022-09-21T03:55:23.278Z,5.89
2022-09-21T03:57:50.003Z,5.90
2022-09-21T04:00:16.901Z,5.82
2022-09-21T04:02:43.966Z,5.73
2022-09-21T04:05:14.713Z,5.70
2022-09-21T04:07:42.769Z,5.71
2022-09-21T04:10:13.038Z,5.74
2022-09-21T04:12:43.790Z,5.74
2022-09-21T04:15:19.540Z,5.67
2022-09-21T04:17:50.197Z,5.71
2022-09-21T04:20:17.078Z,5.73
2022-09-21T04:22:45.153Z,5.70
2022-09-21T04:25:13.053Z,5.52
2022-09-21T04:27:40.337Z,5.49
2022-09-21T04:30:08.487Z,5.54
2022-09-21T04:32:35.187Z,5.47
2022-09-21T04:35:02.059Z,5.43
2022-09-21T04:37:28.757Z,5.47
2022-09-21T04:39:55.950Z,5.46
2022-09-21T04:42:23.287Z,5.47
2022-09-21T04:44:51.473Z,5.51
2022-09-21T04:47:18.175Z,5.57
2022-09-21T04:49:45.000Z,5.49
2022-09-21T04:52:13.738Z,5.51
2022-09-21T04:54:43.647Z,5.47
2022-09-21T04:57:10.284Z,5.32
2022-09-21T04:59:36.926Z,5.26
2022-09-21T05:02:03.741Z,5.29
2022-09-21T05:04:30.463Z,5.35
2022-09-21T05:06:59.368Z,5.36
2022-09-21T05:09:44.782Z,5.36
2022-09-21T05:12:11.419Z,5.30
2022-09-21T05:14:38.050Z,5.29
2022-09-21T05:17:04.794Z,5.39
2022-09-21T05:19:31.443Z,5.49
2022-09-21T05:21:58.098Z,5.49
2022-09-21T05:24:24.784Z,5.54
2022-09-21T05:26:52.453Z,5.56
2022-09-21T05:29:19.407Z,5.65
2022-09-21T05:31:51.713Z,5.62
2022-09-21T05:34:27.378Z,5.60
2022-09-21T05:37:12.915Z,5.76
2022-09-21T05:39:39.848Z,5.86
2022-09-21T05:42:07.072Z,5.95
2022-09-21T05:44:34.154Z,6.03
2022-09-21T05:47:23.216Z,6.11
2022-09-21T05:50:02.511Z,6.16
2022-09-21T05:52:35.844Z,6.17
2022-09-21T05:55:25.198Z,6.15
2022-09-21T05:58:02.580Z,6.22
2022-09-21T06:00:42.625Z,6.35
2022-09-21T06:03:26.969Z,6.65
2022-09-21T06:05:53.677Z,7.22
2022-09-21T06:08:20.574Z,7.79
2022-09-21T06:10:47.338Z,9.36
2022-09-21T06:13:14.526Z,10.24
2022-09-21T06:15:42.216Z,11.34
2022-09-21T06:18:10.655Z,12.40
2022-09-21T06:20:39.883Z,13.09
2022-09-21T06:23:09.440Z,13.57
2022-09-21T06:25:36.829Z,14.05
2022-09-21T06:28:05.994Z,14.46
2022-09-21T06:30:34.950Z,13.96
2022-09-21T06:33:02.947Z,13.58
2022-09-21T06:35:31.156Z,13.25
2022-09-21T06:38:02.852Z,12.58
2022-09-21T06:40:30.943Z,11.82
2022-09-21T06:42:59.056Z,11.44
2022-09-21T06:45:26.844Z,11.08
2022-09-21T06:47:53.610Z,10.75
2022-09-21T06:50:20.810Z,10.63
2022-09-21T06:52:47.670Z,10.55
2022-09-21T06:55:14.937Z,10.62
2022-09-21T06:57:41.803Z,10.76
2022-09-21T07:00:10.685Z,10.88
2022-09-21T07:02:37.780Z,11.05
2022-09-21T07:05:05.093Z,11.16
2022-09-21T07:07:32.079Z,11.42
2022-09-21T07:10:07.623Z,11.57
2022-09-21T07:12:36.460Z,11.73
2022-09-21T07:15:04.485Z,11.82
2022-09-21T07:17:36.121Z,11.98
2022-09-21T07:20:04.636Z,12.16
2022-09-21T07:22:32.764Z,12.43
2022-09-21T07:25:00.223Z,12.39
2022-09-21T07:27:30.235Z,12.59
2022-09-21T07:29:56.985Z,12.69
2022-09-21T07:32:23.993Z,12.76
2022-09-21T07:34:50.673Z,12.99
2022-09-21T07:37:17.419Z,13.15
2022-09-21T07:39:44.158Z,13.18
2022-09-21T07:42:11.143Z,13.40
2022-09-21T07:44:37.748Z,13.73
2022-09-21T07:47:04.551Z,13.68
2022-09-21T07:49:31.296Z,13.91
2022-09-21T07:52:03.511Z,14.29
2022-09-21T07:54:33.731Z,14.46
2022-09-21T07:57:18.866Z,14.32
2022-09-21T07:59:45.959Z,14.32
2022-09-21T08:02:12.886Z,14.43
2022-09-21T08:04:39.647Z,14.71
2022-09-21T08:07:06.307Z,15.13
2022-09-21T08:09:32.956Z,15.43
2022-09-21T08:12:01.488Z,15.30
2022-09-21T08:14:29.262Z,14.61
2022-09-21T08:16:56.070Z,14.49
2022-09-21T08:19:25.773Z,14.45
2022-09-21T08:21:57.233Z,14.84
2022-09-21T08:24:26.825Z,14.87
2022-09-21T08:26:55.861Z,14.98
2022-09-21T08:29:43.822Z,15.35
2022-09-21T08:32:22.866Z,15.26
2022-09-21T08:34:57.315Z,15.14
2022-09-21T08:37:24.213Z,15.64
2022-09-21T08:39:50.961Z,16.14
2022-09-21T08:42:47.547Z,16.13
2022-09-21T08:45:19.625Z,16.28
2022-09-21T08:47:51.878Z,16.47
2022-09-21T08:50:30.640Z,16.88
2022-09-21T08:53:34.547Z,16.60
2022-09-21T08:56:02.914Z,16.40
2022-09-21T08:58:32.288Z,16.93
2022-09-21T09:01:24.803Z,16.56
2022-09-21T09:04:28.358Z,16.84
2022-09-21T09:07:21.313Z,17.28
2022-09-21T09:10:20.372Z,17.51
2022-09-21T09:12:56.181Z,17.13
2022-09-21T09:15:32.756Z,17.93
2022-09-21T09:18:12.296Z,17.80
2022-09-21T09:20:49.141Z,17.54
2022-09-21T09:23:22.756Z,17.68
2022-09-21T09:25:54.082Z,17.83
2022-09-21T09:28:27.915Z,17.72
2022-09-21T09:31:02.491Z,18.22
2022-09-21T09:33:56.630Z,17.95
2022-09-21T09:36:53.803Z,17.33
2022-09-21T09:39:16.611Z,17.47
2022-09-21T09:41:56.436Z,17.40
2022-09-21T09:44:29.100Z,17.62
2022-09-21T09:47:14.578Z,17.65
2022-09-21T09:49:59.943Z,18.13
2022-09-21T09:52:27.777Z,18.41
2022-09-21T09:54:57.266Z,18.78
2022-09-21T09:57:33.252Z,19.00
2022-09-21T10:00:09.208Z,18.62
2022-09-21T10:02:49.981Z,19.14
2022-09-21T10:05:24.766Z,19.54
2022-09-21T10:07:52.565Z,19.06
2022-09-21T10:10:37.232Z,17.80
2022-09-21T10:13:39.660Z,18.18
2022-09-21T10:16:22.119Z,17.83
2022-09-21T10:19:01.728Z,18.11
2022-09-21T10:21:51.873Z,17.77
2022-09-21T10:24:25.563Z,17.77
2022-09-21T10:26:56.792Z,17.92
2022-09-21T10:29:23.980Z,17.89
2022-09-21T10:31:54.448Z,18.31
2022-09-21T10:34:22.138Z,18.32
2022-09-21T10:36:57.092Z,18.69
2022-09-21T10:39:30.156Z,18.40
2022-09-21T10:42:05.052Z,18.78
2022-09-21T10:44:40.956Z,19.02
2022-09-21T10:47:19.494Z,19.05
2022-09-21T10:49:50.819Z,18.37
2022-09-21T10:52:21.417Z,18.04
2022-09-21T10:54:52.294Z,18.07
2022-09-21T10:57:23.270Z,17.98
2022-09-21T10:59:51.087Z,18.64
2022-09-21T11:02:24.121Z,18.71
2022-09-21T11:04:57.446Z,18.89
2022-09-21T11:07:31.764Z,19.36
2022-09-21T11:10:34.089Z,19.29
2022-09-21T11:13:23.236Z,19.52
2022-09-21T11:15:56.537Z,19.10
2022-09-21T11:18:42.413Z,18.89
2022-09-21T11:21:18.172Z,18.53
2022-09-21T11:24:10.642Z,18.97
2022-09-21T11:26:51.734Z,18.50
2022-09-21T11:29:29.195Z,17.76
2022-09-21T11:32:21.665Z,18.06
2022-09-21T11:35:27.034Z,18.10
2022-09-21T11:38:09.111Z,18.15
2022-09-21T11:40:54.484Z,18.67
2022-09-21T11:43:46.069Z,18.76
2022-09-21T11:46:30.368Z,19.17
2022-09-21T11:49:29.220Z,19.15
2022-09-21T11:52:10.673Z,19.36
2022-09-21T11:54:50.423Z,19.57
2022-09-21T11:57:28.749Z,19.56
2022-09-21T12:00:16.667Z,19.53
2022-09-21T12:02:55.288Z,19.59
2022-09-21T12:05:38.266Z,19.47
2022-09-21T12:08:43.574Z,19.44
2022-09-21T12:11:29.746Z,19.53
2022-09-21T12:14:02.363Z,19.68
2022-09-21T12:16:39.376Z,19.72
2022-09-21T12:19:16.642Z,19.25
2022-09-21T12:21:49.753Z,19.24
2022-09-21T12:24:22.257Z,19.63
2022-09-21T12:27:01.692Z,19.42
2022-09-21T12:29:31.412Z,19.21
2022-09-21T12:32:02.981Z,18.84
2022-09-21T12:34:47.763Z,18.91
2022-09-21T12:37:25.435Z,19.03
2022-09-21T12:40:03.775Z,18.20
2022-09-21T12:42:50.089Z,18.91
2022-09-21T12:45:22.020Z,18.85
2022-09-21T12:48:04.858Z,19.81
2022-09-21T12:50:48.534Z,20.18
2022-09-21T12:53:20.491Z,20.31
2022-09-21T12:56:22.504Z,19.93
2022-09-21T12:59:11.975Z,19.64
2022-09-21T13:02:12.247Z,19.38
2022-09-21T13:04:43.482Z,19.23
2022-09-21T13:07:44.372Z,19.31
2022-09-21T13:10:23.869Z,19.46
2022-09-21T13:13:02.361Z,19.85
2022-09-21T13:15:40.743Z,19.97
2022-09-21T13:18:25.047Z,20.06
2022-09-21T13:20:55.585Z,19.99
2022-09-21T13:23:55.024Z,19.90
2022-09-21T13:26:45.971Z,19.80
2022-09-21T13:29:22.272Z,19.59
2022-09-21T13:32:03.776Z,19.83
2022-09-21T13:34:36.348Z,19.81
2022-09-21T13:37:27.397Z,19.38
2022-09-21T13:40:06.470Z,19.50
2022-09-21T13:42:33.934Z,18.62
2022-09-21T13:45:15.708Z,18.84
2022-09-21T13:47:45.832Z,18.78
2022-09-21T13:50:42.744Z,18.81
2022-09-21T13:53:23.798Z,18.93
2022-09-21T13:55:56.858Z,19.08
2022-09-21T13:58:34.835Z,19.05
2022-09-21T14:04:36.778Z,18.27
2022-09-21T14:07:08.444Z,17.93
2022-09-21T14:10:03.501Z,18.05
2022-09-21T14:12:38.526Z,17.87
2022-09-21T14:15:18.235Z,17.71
2022-09-21T14:18:07.464Z,17.67
2022-09-21T14:20:39.510Z,17.52
2022-09-21T14:23:16.548Z,17.59
2022-09-21T14:26:19.362Z,17.46
2022-09-21T14:28:52.432Z,17.44
2022-09-21T14:31:26.718Z,17.48
2022-09-21T14:33:57.971Z,17.44
2022-09-21T14:36:34.604Z,17.34
2022-09-21T14:39:04.668Z,17.20
2022-09-21T14:41:41.140Z,17.16
2022-09-21T14:44:19.645Z,17.11
2022-09-21T14:46:46.560Z,17.09
2022-09-21T14:49:23.136Z,17.12
2022-09-21T14:52:12.588Z,17.03
2022-09-21T14:55:04.282Z,16.99
2022-09-21T14:57:48.718Z,17.05
2022-09-21T15:00:26.440Z,17.04
2022-09-21T15:03:39.296Z,16.89
2022-09-21T15:06:34.331Z,16.79
2022-09-21T15:09:26.071Z,16.76
2022-09-21T15:12:02.208Z,16.71
2022-09-21T15:14:46.473Z,16.69
2022-09-21T15:17:28.074Z,16.64
2022-09-21T15:20:01.224Z,16.62
2022-09-21T15:22:29.117Z,16.68
2022-09-21T15:24:59.213Z,16.69
2022-09-21T15:27:33.161Z,16.86
2022-09-21T15:30:03.808Z,16.81
2022-09-21T15:32:35.788Z,16.72
2022-09-21T15:35:06.999Z,16.65
2022-09-21T15:37:39.789Z,16.67
2022-09-21T15:40:17.375Z,16.69
2022-09-21T15:43:11.878Z,16.72
2022-09-21T15:46:03.982Z,16.70
2022-09-21T15:48:42.653Z,16.69
2022-09-21T15:51:24.904Z,16.87
2022-09-21T15:54:09.075Z,16.85
2022-09-21T15:56:40.841Z,16.98
2022-09-21T15:59:16.920Z,17.03
2022-09-21T16:01:57.812Z,16.65
2022-09-21T16:04:27.559Z,16.57
2022-09-21T16:07:04.737Z,16.50
2022-09-21T16:09:46.350Z,16.41
2022-09-21T16:12:45.206Z,16.19
2022-09-21T16:15:30.399Z,16.15
2022-09-21T16:18:07.690Z,16.06
2022-09-21T16:20:50.319Z,16.10
2022-09-21T16:23:23.442Z,16.08
2022-09-21T16:26:01.133Z,16.43
2022-09-21T16:28:29.831Z,16.16
2022-09-21T16:30:58.998Z,16.05
2022-09-21T16:33:39.043Z,15.85
2022-09-21T16:36:34.975Z,15.83
2022-09-21T16:39:06.492Z,15.70
2022-09-21T16:41:40.560Z,15.72
2022-09-21T16:44:21.120Z,15.99
2022-09-21T16:46:51.948Z,15.89
2022-09-21T16:49:20.951Z,16.01
2022-09-21T16:51:53.330Z,16.00
2022-09-21T16:54:25.451Z,15.96
2022-09-21T16:56:54.988Z,16.07
2022-09-21T16:59:23.740Z,15.95
2022-09-21T17:01:56.312Z,15.86
2022-09-21T17:04:29.040Z,15.73
2022-09-21T17:06:57.192Z,15.55
2022-09-21T17:09:29.472Z,15.79
2022-09-21T17:12:03.006Z,15.72
2022-09-21T17:14:40.891Z,15.67
2022-09-21T17:17:20.329Z,15.60
2022-09-21T17:19:50.087Z,15.55
2022-09-21T17:22:18.263Z,15.54
2022-09-21T17:24:52.327Z,15.52
2022-09-21T17:27:22.795Z,15.47
2022-09-21T17:29:51.028Z,15.33
2022-09-21T17:32:37.887Z,15.29
2022-09-21T17:35:28.935Z,15.10
2022-09-21T17:37:55.832Z,15.07
2022-09-21T17:40:25.081Z,14.95
2022-09-21T17:42:57.614Z,14.90
2022-09-21T17:45:50.591Z,14.85
2022-09-21T17:48:22.790Z,14.85
2022-09-21T17:50:51.155Z,14.89
2022-09-21T17:53:37.022Z,14.93
2022-09-21T17:56:15.357Z,14.97
2022-09-21T17:58:52.252Z,14.87
2022-09-21T18:01:29.363Z,14.64
2022-09-21T18:03:57.869Z,14.56
2022-09-21T18:06:26.122Z,14.59
2022-09-21T18:08:54.146Z,14.54
2022-09-21T18:11:43.171Z,14.40
2022-09-21T18:14:20.427Z,14.41
2022-09-21T18:17:08.498Z,14.37
2022-09-21T18:20:07.940Z,14.43
2022-09-21T18:23:01.811Z,14.42
2022-09-21T18:25:33.505Z,14.24
2022-09-21T18:28:12.514Z,14.03
2022-09-21T18:30:48.787Z,14.04
2022-09-21T18:33:49.272Z,14.00
2022-09-21T18:36:24.085Z,13.71
2022-09-21T18:39:10.446Z,13.54
2022-09-21T18:41:52.637Z,13.48
2022-09-21T18:44:46.555Z,13.49
2022-09-21T18:47:22.231Z,13.33
2022-09-21T18:50:06.753Z,13.20
2022-09-21T18:53:03.640Z,13.20
2022-09-21T18:55:34.218Z,13.14
2022-09-21T18:58:01.403Z,13.22
2022-09-21T19:00:34.971Z,13.21
2022-09-21T19:03:17.493Z,13.18
2022-09-21T19:06:26.411Z,13.14
2022-09-21T19:09:05.542Z,13.12
2022-09-21T19:11:38.370Z,12.88
2022-09-21T19:14:33.719Z,12.68
2022-09-21T19:17:29.876Z,12.54
2022-09-21T19:20:07.508Z,12.53
2022-09-21T19:22:53.870Z,12.52
2022-09-21T19:25:32.625Z,12.46
2022-09-21T19:28:08.218Z,12.34
2022-09-21T19:30:35.937Z,12.27
2022-09-21T19:33:48.457Z,12.20
2022-09-21T19:36:14.450Z,12.17
2022-09-21T19:38:42.250Z,12.20
2022-09-21T19:41:42.668Z,12.17
2022-09-21T19:44:37.442Z,12.11
2022-09-21T19:47:20.860Z,11.90
2022-09-21T19:49:50.446Z,11.86
2022-09-21T19:52:22.600Z,11.80
2022-09-21T19:55:08.881Z,11.84
2022-09-21T19:57:55.389Z,11.83
2022-09-21T20:00:24.298Z,11.83
2022-09-21T20:02:57.791Z,11.84
2022-09-21T20:05:45.710Z,11.89
2022-09-21T20:08:29.082Z,11.95
2022-09-21T20:11:07.131Z,11.90
2022-09-21T20:13:56.757Z,11.83
2022-09-21T20:16:50.583Z,11.73
2022-09-21T20:19:32.538Z,11.58
2022-09-21T20:22:05.103Z,11.54
2022-09-21T20:24:42.225Z,11.47
2022-09-21T20:27:34.850Z,11.45
2022-09-21T20:30:03.411Z,11.43
2022-09-21T20:32:32.345Z,11.41
2022-09-21T20:35:00.569Z,11.37
2022-09-21T20:37:30.568Z,11.31
2022-09-21T20:39:57.893Z,11.17
2022-09-21T20:42:26.992Z,11.19
2022-09-21T20:44:54.990Z,11.20
2022-09-21T20:47:21.872Z,11.28
2022-09-21T20:49:50.218Z,11.31
2022-09-21T20:52:18.236Z,11.26
2022-09-21T20:54:49.024Z,11.11
2022-09-21T20:57:20.620Z,11.14
2022-09-21T20:59:48.854Z,11.18
2022-09-21T21:02:16.792Z,11.23
2022-09-21T21:04:44.429Z,11.30
2022-09-21T21:07:12.466Z,11.24
2022-09-21T21:09:41.061Z,11.03
2022-09-21T21:12:09.472Z,10.96
2022-09-21T21:14:37.947Z,10.95
2022-09-21T21:17:06.395Z,10.94
2022-09-21T21:19:34.282Z,10.82
2022-09-21T21:22:02.447Z,10.73
2022-09-21T21:24:42.330Z,10.91
2022-09-21T21:27:17.399Z,10.94
2022-09-21T21:29:52.054Z,10.86
2022-09-21T21:32:24.160Z,10.78
2022-09-21T21:34:53.267Z,10.86
2022-09-21T21:37:24.161Z,10.92
2022-09-21T21:39:52.059Z,10.91
2022-09-21T21:42:24.387Z,10.93
2022-09-21T21:44:53.520Z,10.97
2022-09-21T21:47:38.641Z,10.99
2022-09-21T21:50:07.216Z,11.00
2022-09-21T21:52:35.858Z,10.94
2022-09-21T21:55:04.097Z,11.04
2022-09-21T21:57:32.774Z,11.09
2022-09-21T22:00:00.610Z,11.02
2022-09-21T22:02:29.803Z,10.98
2022-09-21T22:04:57.978Z,10.99
2022-09-21T22:07:25.741Z,11.10
2022-09-21T22:09:52.567Z,11.13
2022-09-21T22:12:20.390Z,11.18
2022-09-21T22:14:48.702Z,11.18
2022-09-21T22:17:16.746Z,11.17
2022-09-21T22:19:45.768Z,10.99
2022-09-21T22:22:13.054Z,11.02
2022-09-21T22:24:41.525Z,11.08
2022-09-21T22:27:08.539Z,11.11
2022-09-21T22:29:35.848Z,11.10
2022-09-21T22:32:02.707Z,10.85
2022-09-21T22:34:31.308Z,10.73
2022-09-21T22:36:59.620Z,10.78
2022-09-21T22:39:28.491Z,10.75
2022-09-21T22:41:55.540Z,10.71
2022-09-21T22:44:23.536Z,10.68
2022-09-21T22:46:50.332Z,10.61
2022-09-21T22:49:17.145Z,10.53
2022-09-21T22:51:44.653Z,10.17
2022-09-21T22:54:11.540Z,10.16
2022-09-21T22:56:38.384Z,10.24
2022-09-21T22:59:06.863Z,10.16
2022-09-21T23:01:37.682Z,10.13
2022-09-21T23:04:10.941Z,10.10
2022-09-21T23:06:40.581Z,10.10
2022-09-21T23:09:13.741Z,10.00
2022-09-21T23:11:43.316Z,9.84
2022-09-21T23:14:12.255Z,9.89
2022-09-21T23:16:39.499Z,9.73
2022-09-21T23:19:07.195Z,9.75
2022-09-21T23:21:34.633Z,9.80
2022-09-21T23:24:02.631Z,9.83
2022-09-21T23:26:32.167Z,9.73
2022-09-21T23:29:04.877Z,9.57
2022-09-21T23:31:33.117Z,9.58
2022-09-21T23:34:05.196Z,9.63
2022-09-21T23:36:33.812Z,9.84
2022-09-21T23:39:02.560Z,9.87
2022-09-21T23:41:33.099Z,9.43
2022-09-21T23:44:01.743Z,9.43
2022-09-21T23:46:34.789Z,9.25
2022-09-21T23:49:02.190Z,9.14
2022-09-21T23:51:33.154Z,9.26
2022-09-21T23:54:00.910Z,9.33
2022-09-21T23:56:28.705Z,9.17
2022-09-21T23:58:55.797Z,8.91
